sensor_id;sensor_type;location;lat;lon;timestamp;temperature;humidity
3912;DHT22;1971;51.778;10.330;2023-12-20T00:00:54;3.40;99.90
3912;DHT22;1971;51.778;10.330;2023-12-20T00:03:24;3.40;99.90
3912;DHT22;1971;51.778;10.330;2023-12-20T00:05:57;3.20;99.90
3912;DHT22;1971;51.778;10.330;2023-12-20T00:08:28;3.40;99.90
3912;DHT22;1971;51.778;10.330;2023-12-20T00:11:00;3.40;99.90
3912;DHT22;1971;51.778;10.330;2023-12-20T00:13:32;3.70;99.90
3912;DHT22;1971;51.778;10.330;2023-12-20T00:16:02;3.70;99.90
3912;DHT22;1971;51.778;10.330;2023-12-20T00:18:34;3.50;99.90
3912;DHT22;1971;51.778;10.330;2023-12-20T00:21:04;3.40;99.90
3912;DHT22;1971;51.778;10.330;2023-12-20T00:23:34;3.50;99.90
3912;DHT22;1971;51.778;10.330;2023-12-20T00:26:07;3.70;99.90
3912;DHT22;1971;51.778;10.330;2023-12-20T00:28:37;3.20;99.90
3912;DHT22;1971;51.778;10.330;2023-12-20T00:31:07;3.70;99.90
3912;DHT22;1971;51.778;10.330;2023-12-20T00:33:38;3.50;99.90
3912;DHT22;1971;51.778;10.330;2023-12-20T00:36:11;3.40;99.90
3912;DHT22;1971;51.778;10.330;2023-12-20T00:38:42;3.10;99.90
3912;DHT22;1971;51.778;10.330;2023-12-20T00:41:14;3.40;99.90
3912;DHT22;1971;51.778;10.330;2023-12-20T00:43:44;3.30;99.90
3912;DHT22;1971;51.778;10.330;2023-12-20T00:46:15;3.30;99.90
3912;DHT22;1971;51.778;10.330;2023-12-20T00:48:45;3.50;99.90
3912;DHT22;1971;51.778;10.330;2023-12-20T00:51:15;3.60;99.90
3912;DHT22;1971;51.778;10.330;2023-12-20T00:53:46;3.70;99.90
3912;DHT22;1971;51.778;10.330;2023-12-20T00:56:20;3.40;99.90
3912;DHT22;1971;51.778;10.330;2023-12-20T00:58:50;3.40;99.90
3912;DHT22;1971;51.778;10.330;2023-12-20T01:01:21;3.30;99.90
3912;DHT22;1971;51.778;10.330;2023-12-20T01:03:51;3.10;99.90
3912;DHT22;1971;51.778;10.330;2023-12-20T01:06:22;3.30;99.90
3912;DHT22;1971;51.778;10.330;2023-12-20T01:08:52;3.10;99.90
3912;DHT22;1971;51.778;10.330;2023-12-20T01:11:25;3.40;99.90
3912;DHT22;1971;51.778;10.330;2023-12-20T01:13:55;3.20;99.90
3912;DHT22;1971;51.778;10.330;2023-12-20T01:16:25;3.30;99.90
3912;DHT22;1971;51.778;10.330;2023-12-20T01:18:55;3.30;99.90
3912;DHT22;1971;51.778;10.330;2023-12-20T01:21:26;3.70;99.90
3912;DHT22;1971;51.778;10.330;2023-12-20T01:23:56;3.20;99.90
3912;DHT22;1971;51.778;10.330;2023-12-20T01:26:28;3.60;99.90
3912;DHT22;1971;51.778;10.330;2023-12-20T01:28:59;3.30;99.90
3912;DHT22;1971;51.778;10.330;2023-12-20T01:31:30;3.30;99.90
3912;DHT22;1971;51.778;10.330;2023-12-20T01:34:00;3.10;99.90
3912;DHT22;1971;51.778;10.330;2023-12-20T01:36:30;3.30;99.90
3912;DHT22;1971;51.778;10.330;2023-12-20T01:39:00;3.30;99.90
3912;DHT22;1971;51.778;10.330;2023-12-20T01:41:41;3.70;99.90
3912;DHT22;1971;51.778;10.330;2023-12-20T01:44:12;3.70;99.90
3912;DHT22;1971;51.778;10.330;2023-12-20T01:46:43;3.30;99.90
3912;DHT22;1971;51.778;10.330;2023-12-20T01:49:14;3.50;99.90
3912;DHT22;1971;51.778;10.330;2023-12-20T01:51:45;3.50;99.90
3912;DHT22;1971;51.778;10.330;2023-12-20T01:54:16;3.80;99.90
3912;DHT22;1971;51.778;10.330;2023-12-20T01:56:50;3.80;99.90
3912;DHT22;1971;51.778;10.330;2023-12-20T01:59:20;3.40;99.90
3912;DHT22;1971;51.778;10.330;2023-12-20T02:01:54;4.00;99.90
3912;DHT22;1971;51.778;10.330;2023-12-20T02:04:25;4.00;99.90
3912;DHT22;1971;51.778;10.330;2023-12-20T02:06:56;3.70;99.90
3912;DHT22;1971;51.778;10.330;2023-12-20T02:09:27;4.00;99.90
3912;DHT22;1971;51.778;10.330;2023-12-20T02:12:01;3.70;99.90
3912;DHT22;1971;51.778;10.330;2023-12-20T02:14:31;3.80;99.90
3912;DHT22;1971;51.778;10.330;2023-12-20T02:17:01;3.70;99.90
3912;DHT22;1971;51.778;10.330;2023-12-20T02:19:31;3.70;99.90
3912;DHT22;1971;51.778;10.330;2023-12-20T02:22:08;3.60;99.90
3912;DHT22;1971;51.778;10.330;2023-12-20T02:24:39;3.60;99.90
3912;DHT22;1971;51.778;10.330;2023-12-20T02:27:09;3.90;99.90
3912;DHT22;1971;51.778;10.330;2023-12-20T02:29:39;3.80;99.90
3912;DHT22;1971;51.778;10.330;2023-12-20T02:32:09;3.60;99.90
3912;DHT22;1971;51.778;10.330;2023-12-20T02:34:39;3.60;99.90
3912;DHT22;1971;51.778;10.330;2023-12-20T02:37:12;4.00;99.90
3912;DHT22;1971;51.778;10.330;2023-12-20T02:39:42;3.60;99.90
3912;DHT22;1971;51.778;10.330;2023-12-20T02:42:13;3.80;99.90
3912;DHT22;1971;51.778;10.330;2023-12-20T02:44:43;3.60;99.90
3912;DHT22;1971;51.778;10.330;2023-12-20T02:47:13;4.00;99.90
3912;DHT22;1971;51.778;10.330;2023-12-20T02:49:43;3.80;99.90
3912;DHT22;1971;51.778;10.330;2023-12-20T02:52:16;3.70;99.90
3912;DHT22;1971;51.778;10.330;2023-12-20T02:54:47;3.60;99.90
3912;DHT22;1971;51.778;10.330;2023-12-20T02:57:17;3.70;99.90
3912;DHT22;1971;51.778;10.330;2023-12-20T02:59:47;3.50;99.90
3912;DHT22;1971;51.778;10.330;2023-12-20T03:02:17;3.70;99.90
3912;DHT22;1971;51.778;10.330;2023-12-20T03:04:47;3.50;99.90
3912;DHT22;1971;51.778;10.330;2023-12-20T03:07:20;3.60;99.90
3912;DHT22;1971;51.778;10.330;2023-12-20T03:09:50;3.80;99.90
3912;DHT22;1971;51.778;10.330;2023-12-20T03:12:40;3.80;99.90
3912;DHT22;1971;51.778;10.330;2023-12-20T03:15:10;3.80;99.90
3912;DHT22;1971;51.778;10.330;2023-12-20T03:17:41;3.70;99.90
3912;DHT22;1971;51.778;10.330;2023-12-20T03:20:11;3.60;99.90
3912;DHT22;1971;51.778;10.330;2023-12-20T03:22:42;3.50;99.90
3912;DHT22;1971;51.778;10.330;2023-12-20T03:25:12;3.50;99.90
3912;DHT22;1971;51.778;10.330;2023-12-20T03:27:43;3.60;99.90
3912;DHT22;1971;51.778;10.330;2023-12-20T03:30:14;3.20;99.90
3912;DHT22;1971;51.778;10.330;2023-12-20T03:32:44;3.10;99.90
3912;DHT22;1971;51.778;10.330;2023-12-20T03:35:14;3.50;99.90
3912;DHT22;1971;51.778;10.330;2023-12-20T03:37:47;3.20;99.90
3912;DHT22;1971;51.778;10.330;2023-12-20T03:40:17;3.70;99.90
3912;DHT22;1971;51.778;10.330;2023-12-20T03:42:47;3.30;99.90
3912;DHT22;1971;51.778;10.330;2023-12-20T03:45:18;3.50;99.90
3912;DHT22;1971;51.778;10.330;2023-12-20T03:47:48;3.30;99.90
3912;DHT22;1971;51.778;10.330;2023-12-20T03:50:22;3.20;99.90
3912;DHT22;1971;51.778;10.330;2023-12-20T03:52:55;3.50;99.90
3912;DHT22;1971;51.778;10.330;2023-12-20T03:55:26;3.10;99.90
3912;DHT22;1971;51.778;10.330;2023-12-20T03:57:56;3.00;99.90
3912;DHT22;1971;51.778;10.330;2023-12-20T04:00:26;3.10;99.90
3912;DHT22;1971;51.778;10.330;2023-12-20T04:02:57;3.20;99.90
3912;DHT22;1971;51.778;10.330;2023-12-20T04:05:27;3.40;99.90
3912;DHT22;1971;51.778;10.330;2023-12-20T04:08:01;3.40;99.90
3912;DHT22;1971;51.778;10.330;2023-12-20T04:10:31;3.10;99.90
3912;DHT22;1971;51.778;10.330;2023-12-20T04:13:01;3.40;99.90
3912;DHT22;1971;51.778;10.330;2023-12-20T04:15:32;3.20;99.90
3912;DHT22;1971;51.778;10.330;2023-12-20T04:18:02;3.20;99.90
3912;DHT22;1971;51.778;10.330;2023-12-20T04:20:32;3.00;99.90
3912;DHT22;1971;51.778;10.330;2023-12-20T04:23:05;3.20;99.90
3912;DHT22;1971;51.778;10.330;2023-12-20T04:25:35;3.10;99.90
3912;DHT22;1971;51.778;10.330;2023-12-20T04:28:05;3.30;99.90
3912;DHT22;1971;51.778;10.330;2023-12-20T04:30:38;3.30;99.90
3912;DHT22;1971;51.778;10.330;2023-12-20T04:33:08;3.30;99.90
3912;DHT22;1971;51.778;10.330;2023-12-20T04:35:39;3.00;99.90
3912;DHT22;1971;51.778;10.330;2023-12-20T04:38:12;3.10;99.90
3912;DHT22;1971;51.778;10.330;2023-12-20T04:40:42;2.80;99.90
3912;DHT22;1971;51.778;10.330;2023-12-20T04:43:13;2.80;99.90
3912;DHT22;1971;51.778;10.330;2023-12-20T04:45:43;3.10;99.90
3912;DHT22;1971;51.778;10.330;2023-12-20T04:48:13;2.80;99.90
3912;DHT22;1971;51.778;10.330;2023-12-20T04:50:43;2.90;99.90
3912;DHT22;1971;51.778;10.330;2023-12-20T04:53:17;2.90;99.90
3912;DHT22;1971;51.778;10.330;2023-12-20T04:55:47;2.80;99.90
3912;DHT22;1971;51.778;10.330;2023-12-20T04:58:17;2.80;99.90
3912;DHT22;1971;51.778;10.330;2023-12-20T05:00:47;2.90;99.90
3912;DHT22;1971;51.778;10.330;2023-12-20T05:03:17;2.90;99.90
3912;DHT22;1971;51.778;10.330;2023-12-20T05:05:48;2.90;99.90
3912;DHT22;1971;51.778;10.330;2023-12-20T05:08:20;2.90;99.90
3912;DHT22;1971;51.778;10.330;2023-12-20T05:10:52;3.10;99.90
3912;DHT22;1971;51.778;10.330;2023-12-20T05:13:23;2.80;99.90
3912;DHT22;1971;51.778;10.330;2023-12-20T05:16:08;3.10;99.90
3912;DHT22;1971;51.778;10.330;2023-12-20T05:18:41;2.90;99.90
3912;DHT22;1971;51.778;10.330;2023-12-20T05:21:11;2.80;99.90
3912;DHT22;1971;51.778;10.330;2023-12-20T05:23:45;2.70;99.90
3912;DHT22;1971;51.778;10.330;2023-12-20T05:26:15;2.80;99.90
3912;DHT22;1971;51.778;10.330;2023-12-20T05:28:45;2.70;99.90
3912;DHT22;1971;51.778;10.330;2023-12-20T05:31:16;2.80;99.90
3912;DHT22;1971;51.778;10.330;2023-12-20T05:33:46;2.80;99.90
3912;DHT22;1971;51.778;10.330;2023-12-20T05:36:16;2.70;99.90
3912;DHT22;1971;51.778;10.330;2023-12-20T05:38:49;3.10;99.90
3912;DHT22;1971;51.778;10.330;2023-12-20T05:41:20;2.90;99.90
3912;DHT22;1971;51.778;10.330;2023-12-20T05:43:53;2.60;99.90
3912;DHT22;1971;51.778;10.330;2023-12-20T05:46:25;3.10;99.90
3912;DHT22;1971;51.778;10.330;2023-12-20T05:48:55;3.00;99.90
3912;DHT22;1971;51.778;10.330;2023-12-20T05:51:25;2.50;99.90
3912;DHT22;1971;51.778;10.330;2023-12-20T05:53:58;3.00;99.90
3912;DHT22;1971;51.778;10.330;2023-12-20T05:56:31;3.00;99.90
3912;DHT22;1971;51.778;10.330;2023-12-20T05:59:01;2.90;99.90
3912;DHT22;1971;51.778;10.330;2023-12-20T06:01:31;2.60;99.90
3912;DHT22;1971;51.778;10.330;2023-12-20T06:04:02;3.10;99.90
3912;DHT22;1971;51.778;10.330;2023-12-20T06:06:33;2.50;99.90
3912;DHT22;1971;51.778;10.330;2023-12-20T06:09:06;3.00;99.90
3912;DHT22;1971;51.778;10.330;2023-12-20T06:11:36;2.60;99.90
3912;DHT22;1971;51.778;10.330;2023-12-20T06:14:06;3.10;99.90
3912;DHT22;1971;51.778;10.330;2023-12-20T06:16:36;2.70;99.90
3912;DHT22;1971;51.778;10.330;2023-12-20T06:19:06;2.80;99.90
3912;DHT22;1971;51.778;10.330;2023-12-20T06:21:36;2.70;99.90
3912;DHT22;1971;51.778;10.330;2023-12-20T06:24:13;2.90;99.90
3912;DHT22;1971;51.778;10.330;2023-12-20T06:26:43;3.10;99.90
3912;DHT22;1971;51.778;10.330;2023-12-20T06:29:13;2.60;99.90
3912;DHT22;1971;51.778;10.330;2023-12-20T06:31:44;2.90;99.90
3912;DHT22;1971;51.778;10.330;2023-12-20T06:34:14;2.60;99.90
3912;DHT22;1971;51.778;10.330;2023-12-20T06:36:44;3.00;99.90
3912;DHT22;1971;51.778;10.330;2023-12-20T06:39:17;2.70;99.90
3912;DHT22;1971;51.778;10.330;2023-12-20T06:41:48;2.90;99.90
3912;DHT22;1971;51.778;10.330;2023-12-20T06:44:18;3.10;99.90
3912;DHT22;1971;51.778;10.330;2023-12-20T06:46:48;3.20;99.90
3912;DHT22;1971;51.778;10.330;2023-12-20T06:49:19;3.10;99.90
3912;DHT22;1971;51.778;10.330;2023-12-20T06:51:49;3.10;99.90
3912;DHT22;1971;51.778;10.330;2023-12-20T06:54:22;3.10;99.90
3912;DHT22;1971;51.778;10.330;2023-12-20T06:56:53;3.10;99.90
3912;DHT22;1971;51.778;10.330;2023-12-20T06:59:23;2.60;99.90
3912;DHT22;1971;51.778;10.330;2023-12-20T07:01:53;2.70;99.90
3912;DHT22;1971;51.778;10.330;2023-12-20T07:04:23;2.90;99.90
3912;DHT22;1971;51.778;10.330;2023-12-20T07:06:54;2.60;99.90
3912;DHT22;1971;51.778;10.330;2023-12-20T07:09:30;2.70;99.90
3912;DHT22;1971;51.778;10.330;2023-12-20T07:12:00;2.70;99.90
3912;DHT22;1971;51.778;10.330;2023-12-20T07:14:30;3.10;99.90
3912;DHT22;1971;51.778;10.330;2023-12-20T07:17:00;3.20;99.90
3912;DHT22;1971;51.778;10.330;2023-12-20T07:19:30;2.90;99.90
3912;DHT22;1971;51.778;10.330;2023-12-20T07:22:01;2.80;99.90
3912;DHT22;1971;51.778;10.330;2023-12-20T07:24:33;2.70;99.90
3912;DHT22;1971;51.778;10.330;2023-12-20T07:27:04;2.70;99.90
3912;DHT22;1971;51.778;10.330;2023-12-20T07:29:34;3.00;99.90
3912;DHT22;1971;51.778;10.330;2023-12-20T07:32:05;2.50;99.90
3912;DHT22;1971;51.778;10.330;2023-12-20T07:34:35;2.80;99.90
3912;DHT22;1971;51.778;10.330;2023-12-20T07:37:05;2.80;99.90
3912;DHT22;1971;51.778;10.330;2023-12-20T07:39:40;3.00;99.90
3912;DHT22;1971;51.778;10.330;2023-12-20T07:42:10;3.10;99.90
3912;DHT22;1971;51.778;10.330;2023-12-20T07:44:40;2.60;99.90
3912;DHT22;1971;51.778;10.330;2023-12-20T07:47:11;2.70;99.90
3912;DHT22;1971;51.778;10.330;2023-12-20T07:49:44;2.70;99.90
3912;DHT22;1971;51.778;10.330;2023-12-20T07:52:14;2.60;99.90
3912;DHT22;1971;51.778;10.330;2023-12-20T07:54:47;2.80;99.90
3912;DHT22;1971;51.778;10.330;2023-12-20T07:57:18;2.80;99.90
3912;DHT22;1971;51.778;10.330;2023-12-20T07:59:48;2.70;99.90
3912;DHT22;1971;51.778;10.330;2023-12-20T08:02:18;2.80;99.90
3912;DHT22;1971;51.778;10.330;2023-12-20T08:04:48;2.90;99.90
3912;DHT22;1971;51.778;10.330;2023-12-20T08:07:18;3.00;99.90
3912;DHT22;1971;51.778;10.330;2023-12-20T08:09:51;3.00;99.90
3912;DHT22;1971;51.778;10.330;2023-12-20T08:12:22;2.90;99.90
3912;DHT22;1971;51.778;10.330;2023-12-20T08:14:55;2.90;99.90
3912;DHT22;1971;51.778;10.330;2023-12-20T08:17:25;2.80;99.90
3912;DHT22;1971;51.778;10.330;2023-12-20T08:19:55;2.90;99.90
3912;DHT22;1971;51.778;10.330;2023-12-20T08:22:26;2.90;99.90
3912;DHT22;1971;51.778;10.330;2023-12-20T08:24:59;2.80;99.90
3912;DHT22;1971;51.778;10.330;2023-12-20T08:27:29;2.80;99.90
3912;DHT22;1971;51.778;10.330;2023-12-20T08:30:00;3.00;99.90
3912;DHT22;1971;51.778;10.330;2023-12-20T08:32:30;3.20;99.90
3912;DHT22;1971;51.778;10.330;2023-12-20T08:35:01;3.10;99.90
3912;DHT22;1971;51.778;10.330;2023-12-20T08:37:31;2.90;99.90
3912;DHT22;1971;51.778;10.330;2023-12-20T08:40:07;3.10;99.90
3912;DHT22;1971;51.778;10.330;2023-12-20T08:42:37;3.20;99.90
3912;DHT22;1971;51.778;10.330;2023-12-20T08:45:08;3.10;99.90
3912;DHT22;1971;51.778;10.330;2023-12-20T08:47:38;2.80;99.90
3912;DHT22;1971;51.778;10.330;2023-12-20T08:50:08;2.90;99.90
3912;DHT22;1971;51.778;10.330;2023-12-20T08:52:39;3.30;99.90
3912;DHT22;1971;51.778;10.330;2023-12-20T08:55:12;3.00;99.90
3912;DHT22;1971;51.778;10.330;2023-12-20T08:57:43;2.90;99.90
3912;DHT22;1971;51.778;10.330;2023-12-20T09:00:15;3.20;99.90
3912;DHT22;1971;51.778;10.330;2023-12-20T09:02:47;3.00;99.90
3912;DHT22;1971;51.778;10.330;2023-12-20T09:05:17;2.90;99.90
3912;DHT22;1971;51.778;10.330;2023-12-20T09:07:48;2.90;99.90
3912;DHT22;1971;51.778;10.330;2023-12-20T09:10:20;3.10;99.90
3912;DHT22;1971;51.778;10.330;2023-12-20T09:12:52;2.90;99.90
3912;DHT22;1971;51.778;10.330;2023-12-20T09:15:25;3.30;99.90
3912;DHT22;1971;51.778;10.330;2023-12-20T09:17:58;3.20;99.90
3912;DHT22;1971;51.778;10.330;2023-12-20T09:20:29;3.00;99.90
3912;DHT22;1971;51.778;10.330;2023-12-20T09:23:00;3.10;99.90
3912;DHT22;1971;51.778;10.330;2023-12-20T09:25:33;3.00;99.90
3912;DHT22;1971;51.778;10.330;2023-12-20T09:28:04;3.30;99.90
3912;DHT22;1971;51.778;10.330;2023-12-20T09:30:34;3.20;99.90
3912;DHT22;1971;51.778;10.330;2023-12-20T09:33:07;3.10;99.90
3912;DHT22;1971;51.778;10.330;2023-12-20T09:35:37;3.10;99.90
3912;DHT22;1971;51.778;10.330;2023-12-20T09:38:08;3.10;99.90
3912;DHT22;1971;51.778;10.330;2023-12-20T09:40:42;3.10;99.90
3912;DHT22;1971;51.778;10.330;2023-12-20T09:43:15;3.10;99.90
3912;DHT22;1971;51.778;10.330;2023-12-20T09:45:46;3.10;99.90
3912;DHT22;1971;51.778;10.330;2023-12-20T09:48:18;3.20;99.90
3912;DHT22;1971;51.778;10.330;2023-12-20T09:50:48;3.00;99.90
3912;DHT22;1971;51.778;10.330;2023-12-20T09:53:21;3.00;99.90
3912;DHT22;1971;51.778;10.330;2023-12-20T09:56:00;3.00;99.90
3912;DHT22;1971;51.778;10.330;2023-12-20T09:58:31;3.10;99.90
3912;DHT22;1971;51.778;10.330;2023-12-20T10:01:01;2.90;99.90
3912;DHT22;1971;51.778;10.330;2023-12-20T10:03:32;3.10;99.90
3912;DHT22;1971;51.778;10.330;2023-12-20T10:06:03;2.80;99.90
3912;DHT22;1971;51.778;10.330;2023-12-20T10:08:34;3.00;99.90
3912;DHT22;1971;51.778;10.330;2023-12-20T10:11:07;3.20;99.90
3912;DHT22;1971;51.778;10.330;2023-12-20T10:13:39;3.20;99.90
3912;DHT22;1971;51.778;10.330;2023-12-20T10:16:10;3.20;99.90
3912;DHT22;1971;51.778;10.330;2023-12-20T10:18:40;2.90;99.90
3912;DHT22;1971;51.778;10.330;2023-12-20T10:21:10;2.90;99.90
3912;DHT22;1971;51.778;10.330;2023-12-20T10:23:40;3.30;99.90
3912;DHT22;1971;51.778;10.330;2023-12-20T10:26:19;3.20;99.90
3912;DHT22;1971;51.778;10.330;2023-12-20T10:28:50;3.00;99.90
3912;DHT22;1971;51.778;10.330;2023-12-20T10:31:28;3.10;99.90
3912;DHT22;1971;51.778;10.330;2023-12-20T10:33:59;3.20;99.90
3912;DHT22;1971;51.778;10.330;2023-12-20T10:36:32;3.20;99.90
3912;DHT22;1971;51.778;10.330;2023-12-20T10:39:05;3.10;99.90
3912;DHT22;1971;51.778;10.330;2023-12-20T10:41:40;2.90;99.90
3912;DHT22;1971;51.778;10.330;2023-12-20T10:44:12;3.00;99.90
3912;DHT22;1971;51.778;10.330;2023-12-20T10:46:43;3.00;99.90
3912;DHT22;1971;51.778;10.330;2023-12-20T10:49:18;2.90;99.90
3912;DHT22;1971;51.778;10.330;2023-12-20T10:51:50;3.10;99.90
3912;DHT22;1971;51.778;10.330;2023-12-20T10:54:23;3.00;99.90
3912;DHT22;1971;51.778;10.330;2023-12-20T10:56:57;2.90;99.90
3912;DHT22;1971;51.778;10.330;2023-12-20T10:59:28;3.10;99.90
3912;DHT22;1971;51.778;10.330;2023-12-20T11:01:59;3.20;99.90
3912;DHT22;1971;51.778;10.330;2023-12-20T11:04:39;3.30;99.90
3912;DHT22;1971;51.778;10.330;2023-12-20T11:07:19;2.90;99.90
3912;DHT22;1971;51.778;10.330;2023-12-20T11:09:57;2.90;99.90
3912;DHT22;1971;51.778;10.330;2023-12-20T11:12:37;3.30;99.90
3912;DHT22;1971;51.778;10.330;2023-12-20T11:15:09;2.90;99.90
3912;DHT22;1971;51.778;10.330;2023-12-20T11:17:40;3.10;99.90
3912;DHT22;1971;51.778;10.330;2023-12-20T11:20:11;3.10;99.90
3912;DHT22;1971;51.778;10.330;2023-12-20T11:22:40;3.30;99.90
3912;DHT22;1971;51.778;10.330;2023-12-20T11:25:23;2.90;99.90
3912;DHT22;1971;51.778;10.330;2023-12-20T11:28:11;3.20;99.90
3912;DHT22;1971;51.778;10.330;2023-12-20T11:30:45;3.00;99.90
3912;DHT22;1971;51.778;10.330;2023-12-20T11:46:31;3.10;99.90
3912;DHT22;1971;51.778;10.330;2023-12-20T11:49:01;2.90;99.90
3912;DHT22;1971;51.778;10.330;2023-12-20T11:51:32;3.10;99.90
3912;DHT22;1971;51.778;10.330;2023-12-20T11:54:02;2.70;99.90
3912;DHT22;1971;51.778;10.330;2023-12-20T11:56:32;2.90;99.90
3912;DHT22;1971;51.778;10.330;2023-12-20T11:59:02;3.10;99.90
3912;DHT22;1971;51.778;10.330;2023-12-20T12:01:51;2.90;99.90
3912;DHT22;1971;51.778;10.330;2023-12-20T12:04:23;3.00;99.90
3912;DHT22;1971;51.778;10.330;2023-12-20T12:06:53;3.20;99.90
3912;DHT22;1971;51.778;10.330;2023-12-20T12:09:23;2.90;99.90
3912;DHT22;1971;51.778;10.330;2023-12-20T12:11:53;3.10;99.90
3912;DHT22;1971;51.778;10.330;2023-12-20T12:14:24;2.90;99.90
3912;DHT22;1971;51.778;10.330;2023-12-20T12:16:56;2.90;99.90
3912;DHT22;1971;51.778;10.330;2023-12-20T12:19:26;3.20;99.90
3912;DHT22;1971;51.778;10.330;2023-12-20T12:22:05;3.00;99.90
3912;DHT22;1971;51.778;10.330;2023-12-20T12:24:42;2.80;99.90
3912;DHT22;1971;51.778;10.330;2023-12-20T12:27:12;3.10;99.90
3912;DHT22;1971;51.778;10.330;2023-12-20T12:30:00;3.00;99.90
3912;DHT22;1971;51.778;10.330;2023-12-20T12:32:37;3.00;99.90
3912;DHT22;1971;51.778;10.330;2023-12-20T12:35:09;3.10;99.90
3912;DHT22;1971;51.778;10.330;2023-12-20T12:37:40;3.30;99.90
3912;DHT22;1971;51.778;10.330;2023-12-20T12:40:12;3.20;99.90
3912;DHT22;1971;51.778;10.330;2023-12-20T12:42:45;3.20;99.90
3912;DHT22;1971;51.778;10.330;2023-12-20T12:45:15;3.00;99.90
3912;DHT22;1971;51.778;10.330;2023-12-20T12:47:48;3.30;99.90
3912;DHT22;1971;51.778;10.330;2023-12-20T12:50:18;3.00;99.90
3912;DHT22;1971;51.778;10.330;2023-12-20T12:52:48;2.90;99.90
3912;DHT22;1971;51.778;10.330;2023-12-20T12:55:18;3.10;99.90
3912;DHT22;1971;51.778;10.330;2023-12-20T12:57:48;3.20;99.90
3912;DHT22;1971;51.778;10.330;2023-12-20T13:00:19;3.30;99.90
3912;DHT22;1971;51.778;10.330;2023-12-20T13:02:52;3.30;99.90
3912;DHT22;1971;51.778;10.330;2023-12-20T13:05:22;3.10;99.90
3912;DHT22;1971;51.778;10.330;2023-12-20T13:07:52;3.20;99.90
3912;DHT22;1971;51.778;10.330;2023-12-20T13:10:22;3.40;99.90
3912;DHT22;1971;51.778;10.330;2023-12-20T13:12:52;3.40;99.90
3912;DHT22;1971;51.778;10.330;2023-12-20T13:15:23;3.30;99.90
3912;DHT22;1971;51.778;10.330;2023-12-20T13:17:55;3.40;99.90
3912;DHT22;1971;51.778;10.330;2023-12-20T13:20:25;3.20;99.90
3912;DHT22;1971;51.778;10.330;2023-12-20T13:22:56;3.30;99.90
3912;DHT22;1971;51.778;10.330;2023-12-20T13:25:25;3.40;99.90
3912;DHT22;1971;51.778;10.330;2023-12-20T13:27:55;3.30;99.90
3912;DHT22;1971;51.778;10.330;2023-12-20T13:30:26;3.70;99.90
3912;DHT22;1971;51.778;10.330;2023-12-20T13:32:59;3.50;99.90
3912;DHT22;1971;51.778;10.330;2023-12-20T13:35:29;3.30;99.90
3912;DHT22;1971;51.778;10.330;2023-12-20T13:37:59;3.30;99.90
3912;DHT22;1971;51.778;10.330;2023-12-20T13:40:29;3.60;99.90
3912;DHT22;1971;51.778;10.330;2023-12-20T13:42:59;3.30;99.90
3912;DHT22;1971;51.778;10.330;2023-12-20T13:45:30;3.70;99.90
3912;DHT22;1971;51.778;10.330;2023-12-20T13:48:04;3.50;99.90
3912;DHT22;1971;51.778;10.330;2023-12-20T13:50:34;3.80;99.90
3912;DHT22;1971;51.778;10.330;2023-12-20T13:53:04;3.40;99.90
3912;DHT22;1971;51.778;10.330;2023-12-20T13:55:34;3.70;99.90
3912;DHT22;1971;51.778;10.330;2023-12-20T13:58:04;3.50;99.90
3912;DHT22;1971;51.778;10.330;2023-12-20T14:00:35;3.60;99.90
3912;DHT22;1971;51.778;10.330;2023-12-20T14:03:07;3.50;99.90
3912;DHT22;1971;51.778;10.330;2023-12-20T14:05:37;3.70;99.90
3912;DHT22;1971;51.778;10.330;2023-12-20T14:08:08;3.70;99.90
3912;DHT22;1971;51.778;10.330;2023-12-20T14:10:38;4.00;99.90
3912;DHT22;1971;51.778;10.330;2023-12-20T14:13:08;3.90;99.90
3912;DHT22;1971;51.778;10.330;2023-12-20T14:15:38;3.80;99.90
3912;DHT22;1971;51.778;10.330;2023-12-20T14:18:10;3.50;99.90
3912;DHT22;1971;51.778;10.330;2023-12-20T14:20:42;3.50;99.90
3912;DHT22;1971;51.778;10.330;2023-12-20T14:23:13;3.60;99.90
3912;DHT22;1971;51.778;10.330;2023-12-20T14:25:44;3.80;99.90
3912;DHT22;1971;51.778;10.330;2023-12-20T14:28:19;3.70;99.90
3912;DHT22;1971;51.778;10.330;2023-12-20T14:30:49;3.90;99.90
3912;DHT22;1971;51.778;10.330;2023-12-20T14:33:22;3.60;99.90
3912;DHT22;1971;51.778;10.330;2023-12-20T14:35:52;3.60;99.90
3912;DHT22;1971;51.778;10.330;2023-12-20T14:38:23;3.20;99.90
3912;DHT22;1971;51.778;10.330;2023-12-20T14:41:01;2.50;99.90
3912;DHT22;1971;51.778;10.330;2023-12-20T14:43:44;2.30;99.90
3912;DHT22;1971;51.778;10.330;2023-12-20T14:46:18;2.00;99.90
3912;DHT22;1971;51.778;10.330;2023-12-20T14:48:52;1.90;99.90
3912;DHT22;1971;51.778;10.330;2023-12-20T14:51:22;2.10;99.90
3912;DHT22;1971;51.778;10.330;2023-12-20T14:53:52;1.80;99.90
3912;DHT22;1971;51.778;10.330;2023-12-20T14:56:23;1.80;99.90
3912;DHT22;1971;51.778;10.330;2023-12-20T14:58:53;2.00;99.90
3912;DHT22;1971;51.778;10.330;2023-12-20T15:01:27;2.20;99.90
3912;DHT22;1971;51.778;10.330;2023-12-20T15:04:01;2.00;99.90
3912;DHT22;1971;51.778;10.330;2023-12-20T15:06:31;2.10;99.90
3912;DHT22;1971;51.778;10.330;2023-12-20T15:09:02;2.20;99.90
3912;DHT22;1971;51.778;10.330;2023-12-20T15:11:32;2.20;99.90
3912;DHT22;1971;51.778;10.330;2023-12-20T15:14:03;2.00;99.90
3912;DHT22;1971;51.778;10.330;2023-12-20T15:16:34;2.40;99.90
3912;DHT22;1971;51.778;10.330;2023-12-20T15:19:08;2.20;99.90
3912;DHT22;1971;51.778;10.330;2023-12-20T15:21:38;2.00;99.90
3912;DHT22;1971;51.778;10.330;2023-12-20T15:24:14;2.60;99.90
3912;DHT22;1971;51.778;10.330;2023-12-20T15:26:47;2.40;99.90
3912;DHT22;1971;51.778;10.330;2023-12-20T15:29:17;2.20;99.90
3912;DHT22;1971;51.778;10.330;2023-12-20T15:31:47;2.40;99.90
3912;DHT22;1971;51.778;10.330;2023-12-20T15:34:20;2.40;99.90
3912;DHT22;1971;51.778;10.330;2023-12-20T15:36:50;2.20;99.90
3912;DHT22;1971;51.778;10.330;2023-12-20T15:39:21;2.30;99.90
3912;DHT22;1971;51.778;10.330;2023-12-20T15:41:51;2.50;99.90
3912;DHT22;1971;51.778;10.330;2023-12-20T15:44:21;2.20;99.90
3912;DHT22;1971;51.778;10.330;2023-12-20T15:46:51;2.40;99.90
3912;DHT22;1971;51.778;10.330;2023-12-20T15:49:24;2.00;99.90
3912;DHT22;1971;51.778;10.330;2023-12-20T15:51:54;1.90;99.90
3912;DHT22;1971;51.778;10.330;2023-12-20T15:54:24;1.90;99.90
3912;DHT22;1971;51.778;10.330;2023-12-20T15:56:55;2.10;99.90
3912;DHT22;1971;51.778;10.330;2023-12-20T15:59:24;2.20;99.90
3912;DHT22;1971;51.778;10.330;2023-12-20T16:01:55;2.10;99.90
3912;DHT22;1971;51.778;10.330;2023-12-20T16:04:27;2.20;99.90
3912;DHT22;1971;51.778;10.330;2023-12-20T16:06:58;1.90;99.90
3912;DHT22;1971;51.778;10.330;2023-12-20T16:09:28;2.30;99.90
3912;DHT22;1971;51.778;10.330;2023-12-20T16:11:58;2.30;99.90
3912;DHT22;1971;51.778;10.330;2023-12-20T16:14:26;2.10;99.90
3912;DHT22;1971;51.778;10.330;2023-12-20T16:16:56;2.50;99.90
3912;DHT22;1971;51.778;10.330;2023-12-20T16:19:29;2.30;99.90
3912;DHT22;1971;51.778;10.330;2023-12-20T16:22:00;2.30;99.90
3912;DHT22;1971;51.778;10.330;2023-12-20T16:24:32;1.70;99.90
3912;DHT22;1971;51.778;10.330;2023-12-20T16:27:03;1.90;99.90
3912;DHT22;1971;51.778;10.330;2023-12-20T16:29:33;1.80;99.90
3912;DHT22;1971;51.778;10.330;2023-12-20T16:32:04;2.10;99.90
3912;DHT22;1971;51.778;10.330;2023-12-20T16:34:37;2.00;99.90
3912;DHT22;1971;51.778;10.330;2023-12-20T16:37:07;1.80;99.90
3912;DHT22;1971;51.778;10.330;2023-12-20T16:39:37;1.90;99.90
3912;DHT22;1971;51.778;10.330;2023-12-20T16:42:07;1.90;99.90